Time;durP1;ratioP1;P1;durP2;ratioP2;P2;SDS_P1;SDS_P2;PMS_P1;PMS_P2;Temp;Humidity;BMP_temperature;BMP_pressure;BME280_temperature;BME280_humidity;BME280_pressure;Samples;Min_cycle;Max_cycle;Signal;HPM_P1;HPM_P2
2021/04/12 00:02:24;;;;;;;4.40;2.45;;;3.20;82.30;;;;;;4900706;29;20367;-72
2021/04/12 00:05:07;;;;;;;6.53;2.47;;;3.20;82.50;;;;;;4900283;29;20024;-73
2021/04/12 00:07:42;;;;;;;6.38;2.40;;;3.20;82.50;;;;;;4901405;29;20024;-72
2021/04/12 00:10:14;;;;;;;7.18;2.63;;;3.20;82.60;;;;;;4900014;29;20123;-72
2021/04/12 00:12:49;;;;;;;8.75;2.88;;;3.20;82.60;;;;;;4900356;29;20196;-72
2021/04/12 00:15:30;;;;;;;5.95;2.20;;;3.10;82.80;;;;;;4901579;29;20039;-72
2021/04/12 00:18:01;;;;;;;6.28;2.05;;;3.10;83.00;;;;;;4902851;29;20028;-72
2021/04/12 00:20:36;;;;;;;10.25;3.47;;;3.10;82.90;;;;;;4901182;29;20522;-72
2021/04/12 00:23:09;;;;;;;7.63;3.03;;;3.10;83.00;;;;;;4900986;29;20024;-73
2021/04/12 00:26:07;;;;;;;7.75;2.70;;;3.00;82.90;;;;;;4899042;29;20045;-72
2021/04/12 00:28:47;;;;;;;7.28;2.65;;;3.00;83.10;;;;;;4901805;29;20016;-72
2021/04/12 00:31:26;;;;;;;4.95;2.70;;;3.00;83.20;;;;;;4902316;29;20029;-72
2021/04/12 00:33:58;;;;;;;8.45;2.83;;;3.00;83.30;;;;;;4900954;29;20088;-72
2021/04/12 00:36:24;;;;;;;4.22;2.10;;;2.90;83.30;;;;;;4899555;29;20098;-72
2021/04/12 00:39:16;;;;;;;5.10;2.13;;;2.90;83.40;;;;;;4900468;29;20042;-73
2021/04/12 00:41:53;;;;;;;5.35;2.58;;;2.90;83.60;;;;;;4901789;29;20053;-77
2021/04/12 00:44:39;;;;;;;8.80;3.42;;;2.90;83.60;;;;;;4899949;29;20025;-77
2021/04/12 00:47:20;;;;;;;3.05;2.30;;;2.90;83.80;;;;;;4905338;29;20021;-77
2021/04/12 00:50:04;;;;;;;6.57;2.78;;;2.90;83.70;;;;;;4911046;29;20028;-77
2021/04/12 00:52:57;;;;;;;6.43;2.35;;;2.80;83.90;;;;;;4903681;29;20040;-77
2021/04/12 00:55:52;;;;;;;6.82;2.80;;;2.80;84.00;;;;;;4910831;29;20064;-77
2021/04/12 00:58:47;;;;;;;7.72;2.97;;;2.70;84.20;;;;;;4910425;29;20048;-73
2021/04/12 01:01:12;;;;;;;6.80;2.78;;;2.70;84.30;;;;;;4869111;29;20754;-73
2021/04/12 01:03:56;;;;;;;7.15;2.30;;;2.70;84.20;;;;;;4901659;29;20031;-73
2021/04/12 01:06:50;;;;;;;8.48;2.75;;;2.70;84.00;;;;;;4906745;29;20075;-73
2021/04/12 01:09:28;;;;;;;9.60;3.92;;;2.70;84.10;;;;;;4904733;29;20028;-73
2021/04/12 01:12:23;;;;;;;11.00;2.80;;;2.70;84.40;;;;;;4903353;29;20021;-73
2021/04/12 01:15:04;;;;;;;10.07;3.15;;;2.60;84.70;;;;;;4804896;29;20047;-73
2021/04/12 01:17:50;;;;;;;15.93;3.35;;;2.50;84.80;;;;;;4900648;29;20036;-73
2021/04/12 01:20:52;;;;;;;7.25;3.00;;;2.50;84.90;;;;;;4901960;29;20028;-73
2021/04/12 01:23:44;;;;;;;8.98;2.95;;;2.50;85.20;;;;;;4901081;29;20032;-73
2021/04/12 01:26:34;;;;;;;6.28;2.30;;;2.50;85.10;;;;;;4905195;29;20036;-73
2021/04/12 01:29:09;;;;;;;6.47;2.72;;;2.60;84.90;;;;;;4903534;29;20024;-73
2021/04/12 01:31:45;;;;;;;6.60;2.85;;;2.60;84.70;;;;;;4902796;29;20036;-73
2021/04/12 01:34:39;;;;;;;18.17;3.22;;;2.60;84.90;;;;;;4904707;29;20486;-73
2021/04/12 01:37:24;;;;;;;6.38;3.28;;;2.50;85.00;;;;;;4902450;29;20051;-73
2021/04/12 01:40:09;;;;;;;8.70;3.22;;;2.50;85.10;;;;;;4903288;29;20146;-73
2021/04/12 01:42:55;;;;;;;7.93;3.17;;;2.50;85.10;;;;;;4901180;29;20024;-73
2021/04/12 01:45:21;;;;;;;9.10;3.50;;;2.40;85.40;;;;;;4906342;29;20029;-72
2021/04/12 01:48:06;;;;;;;8.60;3.38;;;2.40;85.30;;;;;;4901732;29;20683;-72
2021/04/12 01:50:53;;;;;;;12.52;3.40;;;2.30;85.50;;;;;;4904509;29;20609;-72
2021/04/12 01:53:48;;;;;;;6.22;3.13;;;2.30;85.80;;;;;;4900808;29;20036;-72
2021/04/12 01:56:38;;;;;;;10.77;3.65;;;2.20;85.90;;;;;;4904057;29;20028;-72
2021/04/12 01:59:27;;;;;;;16.75;3.85;;;2.20;86.00;;;;;;4901855;29;20095;-72
2021/04/12 02:02:05;;;;;;;14.00;3.63;;;2.20;86.10;;;;;;4900438;29;20508;-72
2021/04/12 02:05:07;;;;;;;13.02;3.95;;;2.20;86.10;;;;;;4902612;29;20430;-72
2021/04/12 02:07:37;;;;;;;8.07;3.45;;;2.20;86.20;;;;;;4900977;29;20680;-72
2021/04/12 02:10:21;;;;;;;9.00;3.63;;;2.20;86.20;;;;;;4903625;29;20450;-72
2021/04/12 02:13:28;;;;;;;10.82;3.65;;;2.20;86.20;;;;;;4903208;29;20178;-77
2021/04/12 02:16:05;;;;;;;10.85;3.65;;;2.20;86.20;;;;;;4909998;29;20028;-77
2021/04/12 02:18:53;;;;;;;10.40;3.13;;;2.20;86.20;;;;;;4901757;29;20036;-73
2021/04/12 02:21:56;;;;;;;10.10;3.97;;;2.20;86.20;;;;;;4898661;29;20040;-73
2021/04/12 02:24:27;;;;;;;10.15;3.70;;;2.20;86.40;;;;;;4900846;29;20063;-73
2021/04/12 02:26:53;;;;;;;8.68;3.35;;;2.10;86.30;;;;;;4899550;29;20613;-73
2021/04/12 02:29:41;;;;;;;8.25;3.80;;;2.20;86.40;;;;;;4904613;29;20088;-73
2021/04/12 02:32:24;;;;;;;7.93;3.70;;;2.20;86.40;;;;;;4902585;29;20532;-73
2021/04/12 02:35:04;;;;;;;8.80;3.90;;;2.20;86.40;;;;;;4901602;29;20021;-73
2021/04/12 02:37:58;;;;;;;13.98;4.45;;;2.10;86.50;;;;;;4910724;29;20025;-73
2021/04/12 02:40:36;;;;;;;6.53;4.35;;;2.10;86.50;;;;;;4909007;29;20505;-73
2021/04/12 02:43:19;;;;;;;7.78;4.07;;;2.00;86.90;;;;;;4901871;29;20504;-73
2021/04/12 02:46:13;;;;;;;6.43;3.85;;;2.00;86.90;;;;;;4903125;29;20044;-73
2021/04/12 02:48:44;;;;;;;7.95;4.30;;;2.00;86.90;;;;;;4900844;29;20029;-73
2021/04/12 02:51:31;;;;;;;10.90;4.47;;;1.90;86.90;;;;;;4903049;29;20039;-73
2021/04/12 02:54:12;;;;;;;6.90;3.38;;;1.90;87.20;;;;;;4902745;29;20043;-73
2021/04/12 02:57:19;;;;;;;11.48;4.15;;;1.90;87.20;;;;;;4902384;29;20467;-73
2021/04/12 03:00:15;;;;;;;7.82;4.40;;;1.90;87.30;;;;;;4889636;29;20127;-73
2021/04/12 03:03:24;;;;;;;13.60;5.10;;;1.90;87.30;;;;;;4902897;29;20470;-73
2021/04/12 03:06:07;;;;;;;5.95;3.60;;;1.90;87.40;;;;;;4894720;29;20410;-73
2021/04/12 03:08:49;;;;;;;11.23;4.43;;;1.90;87.30;;;;;;4901844;29;20112;-73
2021/04/12 03:11:29;;;;;;;7.50;3.88;;;1.90;87.40;;;;;;4898078;29;20024;-73
2021/04/12 03:14:10;;;;;;;8.35;4.07;;;1.90;87.20;;;;;;4909173;29;20017;-76
2021/04/12 03:17:08;;;;;;;8.30;4.00;;;2.00;87.30;;;;;;4908925;29;20047;-76
2021/04/12 03:19:52;;;;;;;6.25;3.30;;;2.00;87.40;;;;;;4905611;29;20029;-76
2021/04/12 03:22:27;;;;;;;8.98;3.85;;;2.00;87.20;;;;;;4898770;29;20025;-76
2021/04/12 03:25:08;;;;;;;8.00;4.13;;;2.00;87.20;;;;;;4900541;29;20071;-76
2021/04/12 03:28:22;;;;;;;10.82;3.90;;;2.00;87.20;;;;;;4903998;29;21643;-76
2021/04/12 03:31:02;;;;;;;8.48;3.72;;;2.00;87.20;;;;;;4863459;29;20049;-76
2021/04/12 03:33:46;;;;;;;11.73;4.63;;;2.00;87.30;;;;;;4862283;29;20030;-73
2021/04/12 03:36:44;;;;;;;7.60;4.75;;;2.00;87.40;;;;;;4889913;29;20133;-72
2021/04/12 03:39:34;;;;;;;11.50;4.33;;;2.00;87.40;;;;;;4886079;29;20041;-72
2021/04/12 03:42:33;;;;;;;8.05;4.25;;;2.10;87.30;;;;;;4902269;29;20538;-72
2021/04/12 03:45:10;;;;;;;9.18;4.07;;;2.10;87.30;;;;;;4890264;29;20048;-72
2021/04/12 03:47:51;;;;;;;5.25;3.75;;;2.00;87.10;;;;;;4900183;29;20016;-72
2021/04/12 03:50:23;;;;;;;8.52;3.92;;;2.10;87.30;;;;;;4900091;29;20024;-72
2021/04/12 03:52:56;;;;;;;9.30;3.70;;;2.10;87.20;;;;;;4903510;29;20640;-72
2021/04/12 03:56:00;;;;;;;9.10;3.83;;;2.10;87.20;;;;;;4900838;29;20565;-72
2021/04/12 03:58:50;;;;;;;6.13;3.80;;;2.10;87.30;;;;;;4900490;29;20489;-72
2021/04/12 04:01:17;;;;;;;10.32;4.07;;;2.10;87.20;;;;;;4900488;29;20056;-76
2021/04/12 04:04:20;;;;;;;6.10;4.28;;;2.00;87.00;;;;;;4905571;29;20035;-72
2021/04/12 04:07:24;;;;;;;9.10;4.50;;;2.00;87.30;;;;;;4900372;29;20032;-72
2021/04/12 04:10:11;;;;;;;8.48;4.43;;;2.00;87.50;;;;;;4890307;29;20432;-77
2021/04/12 04:12:46;;;;;;;11.18;4.78;;;2.00;87.60;;;;;;4909879;29;20032;-76
2021/04/12 04:15:36;;;;;;;8.45;4.18;;;2.00;87.70;;;;;;4899807;29;20039;-77
2021/04/12 04:18:22;;;;;;;6.65;3.97;;;2.00;88.00;;;;;;4903400;29;20049;-77
2021/04/12 04:21:23;;;;;;;11.02;4.50;;;2.10;88.00;;;;;;4900842;29;20023;-77
2021/04/12 04:24:20;;;;;;;7.85;4.32;;;2.10;88.00;;;;;;4893734;29;20036;-77
2021/04/12 04:27:23;;;;;;;5.68;3.40;;;2.20;87.80;;;;;;4856985;29;20120;-77
2021/04/12 04:30:01;;;;;;;8.05;4.20;;;2.30;87.90;;;;;;4903305;29;20039;-77
2021/04/12 04:32:29;;;;;;;6.20;3.30;;;2.30;87.70;;;;;;4908002;29;20024;-77
2021/04/12 04:35:07;;;;;;;6.47;3.90;;;2.40;87.60;;;;;;4911386;29;20036;-77
2021/04/12 04:37:53;;;;;;;8.98;3.50;;;2.50;87.50;;;;;;4902748;29;20056;-77
2021/04/12 04:40:42;;;;;;;5.80;3.70;;;2.50;87.40;;;;;;4898490;29;20489;-77
2021/04/12 04:43:45;;;;;;;10.50;4.35;;;2.60;87.40;;;;;;4886519;29;20180;-77
2021/04/12 04:46:32;;;;;;;7.80;4.85;;;2.60;87.50;;;;;;4902525;29;20462;-77
2021/04/12 04:49:40;;;;;;;7.93;4.53;;;2.50;87.70;;;;;;4898451;29;20017;-77
2021/04/12 04:52:32;;;;;;;7.95;4.18;;;2.50;88.00;;;;;;4878017;29;20158;-77
2021/04/12 04:55:19;;;;;;;11.98;5.30;;;2.50;88.10;;;;;;4901451;29;20024;-77
2021/04/12 04:58:33;;;;;;;6.95;4.63;;;2.60;88.30;;;;;;4900161;29;20044;-77
2021/04/12 05:01:12;;;;;;;7.82;5.15;;;2.60;88.40;;;;;;4861491;29;20486;-76
2021/04/12 05:03:56;;;;;;;5.97;4.30;;;2.60;88.50;;;;;;4867480;29;20033;-76
2021/04/12 05:06:35;;;;;;;9.77;5.10;;;2.60;88.40;;;;;;4899164;29;20125;-76
2021/04/12 05:09:01;;;;;;;;;;;2.70;88.30;;;;;;4911278;29;20069;-76
2021/04/12 05:11:26;;;;;;;8.60;5.03;;;2.60;88.20;;;;;;4896198;29;20435;-76
2021/04/12 05:14:31;;;;;;;11.10;5.35;;;2.60;88.30;;;;;;4897467;29;20029;-77
2021/04/12 05:17:03;;;;;;;6.63;4.63;;;2.70;88.80;;;;;;4887392;29;20040;-73
2021/04/12 05:19:40;;;;;;;8.82;5.25;;;2.60;88.50;;;;;;4907235;29;20036;-73
2021/04/12 05:22:55;;;;;;;11.32;5.28;;;2.70;88.80;;;;;;4900465;29;20563;-76
2021/04/12 05:26:02;;;;;;;7.68;4.30;;;2.60;88.70;;;;;;4899895;29;20040;-77
2021/04/12 05:28:33;;;;;;;15.55;5.78;;;2.70;88.80;;;;;;4879860;29;20043;-77
2021/04/12 05:31:27;;;;;;;13.35;5.32;;;2.60;89.00;;;;;;4899924;29;20104;-77
2021/04/12 05:34:02;;;;;;;9.85;4.45;;;2.60;89.10;;;;;;4910292;29;20510;-76
2021/04/12 05:36:56;;;;;;;9.23;5.45;;;2.60;89.00;;;;;;4905808;29;20059;-77
2021/04/12 05:39:53;;;;;;;12.18;5.32;;;2.60;89.10;;;;;;4908853;29;21685;-77
2021/04/12 05:42:37;;;;;;;9.90;5.07;;;2.70;89.40;;;;;;4906911;29;20028;-77
2021/04/12 05:45:23;;;;;;;9.85;5.57;;;2.70;89.50;;;;;;4910015;29;20108;-77
2021/04/12 05:48:20;;;;;;;11.55;5.45;;;2.80;89.60;;;;;;4905757;29;20068;-76
2021/04/12 05:50:57;;;;;;;7.82;5.07;;;2.80;89.60;;;;;;4917146;29;20036;-76
2021/04/12 05:53:47;;;;;;;7.03;4.95;;;2.90;89.50;;;;;;4917785;29;20389;-76
2021/04/12 05:56:22;;;;;;;9.85;4.85;;;2.90;89.30;;;;;;4917740;29;20028;-76
2021/04/12 05:59:03;;;;;;;10.50;5.60;;;2.90;89.30;;;;;;4918752;29;20056;-76
2021/04/12 06:01:38;;;;;;;8.30;4.70;;;2.90;89.30;;;;;;4918901;29;20031;-76
2021/04/12 06:04:17;;;;;;;7.90;4.63;;;2.90;89.20;;;;;;4899952;29;20036;-76
2021/04/12 06:07:04;;;;;;;7.72;5.30;;;2.90;89.20;;;;;;4900022;29;20029;-76
2021/04/12 06:09:45;;;;;;;8.27;5.10;;;3.00;89.10;;;;;;4898463;29;20058;-76
2021/04/12 06:12:29;;;;;;;6.20;4.05;;;3.00;89.20;;;;;;4899798;29;20032;-76
2021/04/12 06:15:32;;;;;;;9.27;4.47;;;3.00;89.10;;;;;;4904685;29;20027;-76
2021/04/12 06:18:35;;;;;;;8.75;4.35;;;3.00;89.10;;;;;;4918569;29;20062;-76
2021/04/12 06:21:22;;;;;;;6.60;4.30;;;3.00;89.10;;;;;;4917263;29;20392;-76
2021/04/12 06:23:51;;;;;;;8.52;5.20;;;3.10;89.20;;;;;;4918353;29;20047;-76
2021/04/12 06:26:55;;;;;;;10.00;5.25;;;3.10;89.20;;;;;;4917316;29;20020;-76
2021/04/12 06:29:42;;;;;;;6.82;4.78;;;3.30;89.50;;;;;;4871057;29;20033;-76
2021/04/12 06:32:41;;;;;;;9.57;4.85;;;3.40;89.10;;;;;;4898022;29;20036;-76
2021/04/12 06:35:40;;;;;;;7.22;5.03;;;3.50;89.00;;;;;;4899525;29;20067;-76
2021/04/12 06:38:18;;;;;;;;;;;3.60;88.60;;;;;;4908954;29;20552;-76
2021/04/12 06:41:05;;;;;;;10.43;5.50;;;3.80;88.70;;;;;;4917914;29;19913;-76
2021/04/12 06:43:52;;;;;;;7.45;5.35;;;4.00;88.70;;;;;;4916695;29;20024;-76
2021/04/12 06:46:51;;;;;;;15.90;5.20;;;4.10;88.30;;;;;;4916847;29;20123;-76
2021/04/12 06:49:47;;;;;;;10.43;5.50;;;4.10;87.90;;;;;;4909494;29;20033;-76
2021/04/12 06:52:55;;;;;;;6.88;5.20;;;4.00;87.80;;;;;;4899350;29;20036;-76
2021/04/12 06:55:23;;;;;;;8.40;4.90;;;4.00;87.80;;;;;;4899204;29;20115;-76
2021/04/12 06:58:23;;;;;;;8.32;5.25;;;4.10;87.90;;;;;;4899296;29;20376;-76
2021/04/12 07:01:26;;;;;;;7.57;5.05;;;4.10;87.90;;;;;;4901309;29;20036;-76
2021/04/12 07:04:21;;;;;;;7.72;4.55;;;4.10;87.80;;;;;;4898056;29;20043;-76
2021/04/12 07:07:28;;;;;;;10.18;5.03;;;4.30;87.70;;;;;;4899490;29;20033;-76
2021/04/12 07:10:22;;;;;;;12.00;5.00;;;4.40;87.60;;;;;;4896204;29;20033;-76
2021/04/12 07:13:17;;;;;;;8.00;5.38;;;4.50;87.20;;;;;;4897798;29;20084;-76
2021/04/12 07:16:13;;;;;;;5.78;4.78;;;4.60;86.60;;;;;;4907278;29;20032;-74
2021/04/12 07:19:06;;;;;;;6.25;4.50;;;4.60;86.60;;;;;;4917508;29;20063;-74
2021/04/12 07:21:50;;;;;;;6.22;4.07;;;4.70;86.50;;;;;;4917546;29;20052;-74
2021/04/12 07:24:50;;;;;;;5.80;4.13;;;4.80;86.50;;;;;;4917070;29;20040;-74
2021/04/12 07:27:34;;;;;;;6.30;4.40;;;4.90;86.40;;;;;;4916547;29;20051;-76
2021/04/12 07:30:30;;;;;;;7.35;4.22;;;5.00;86.20;;;;;;4906428;29;20441;-76
2021/04/12 07:33:28;;;;;;;5.68;4.63;;;5.00;86.00;;;;;;4897921;29;20025;-76
2021/04/12 07:36:09;;;;;;;9.88;4.50;;;5.10;85.90;;;;;;4895642;29;20075;-76
2021/04/12 07:38:57;;;;;;;5.93;3.75;;;5.30;85.90;;;;;;4897359;29;20035;-76
2021/04/12 07:41:48;;;;;;;6.80;4.00;;;5.50;84.40;;;;;;4898916;29;20035;-76
2021/04/12 07:44:47;;;;;;;7.40;3.50;;;5.70;82.90;;;;;;4909590;29;20028;-76
2021/04/12 07:47:32;;;;;;;3.70;3.33;;;5.80;81.30;;;;;;4906671;29;20103;-76
2021/04/12 07:50:03;;;;;;;6.45;3.08;;;5.90;81.50;;;;;;4898675;29;20038;-76
2021/04/12 07:53:06;;;;;;;6.22;2.60;;;6.10;81.30;;;;;;4898543;29;20020;-76
2021/04/12 07:55:56;;;;;;;3.53;2.75;;;6.30;79.70;;;;;;4898140;29;20040;-76
2021/04/12 07:58:52;;;;;;;5.95;2.53;;;6.40;79.30;;;;;;4908681;29;20130;-76
2021/04/12 08:01:44;;;;;;;8.00;2.38;;;6.60;78.70;;;;;;4917236;29;20075;-76
2021/04/12 08:04:48;;;;;;;6.18;2.70;;;6.70;78.80;;;;;;4916133;29;20035;-76
2021/04/12 08:07:42;;;;;;;3.30;2.10;;;6.90;78.50;;;;;;4878599;29;20033;-76
2021/04/12 08:10:39;;;;;;;7.25;2.75;;;7.10;78.40;;;;;;4912398;29;20031;-76
2021/04/12 08:13:35;;;;;;;3.70;2.30;;;7.20;77.80;;;;;;4915929;29;20028;-76
2021/04/12 08:16:01;;;;;;;4.70;1.70;;;7.40;77.90;;;;;;4917247;29;20036;-76
2021/04/12 08:18:32;;;;;;;4.70;2.17;;;7.50;75.50;;;;;;4917175;29;20075;-76
2021/04/12 08:21:24;;;;;;;4.38;1.70;;;7.50;74.80;;;;;;4916912;29;20028;-76
2021/04/12 08:24:27;;;;;;;5.70;1.95;;;7.60;73.90;;;;;;4915868;29;20405;-76
2021/04/12 08:27:20;;;;;;;9.57;2.30;;;7.60;74.80;;;;;;4917185;29;20024;-76
2021/04/12 08:30:29;;;;;;;5.13;2.17;;;7.90;74.10;;;;;;4915924;29;20137;-76
2021/04/12 08:33:13;;;;;;;11.80;1.70;;;8.10;74.50;;;;;;4914888;29;20060;-74
2021/04/12 08:35:41;;;;;;;8.40;1.35;;;8.00;72.00;;;;;;4915285;29;20024;-74
2021/04/12 08:38:13;;;;;;;3.57;1.27;;;7.90;73.10;;;;;;4916420;29;20036;-74
2021/04/12 08:41:12;;;;;;;10.35;1.60;;;7.90;72.70;;;;;;4916525;29;20031;-74
2021/04/12 08:43:52;;;;;;;3.47;1.45;;;8.10;72.20;;;;;;4916565;29;20024;-75
2021/04/12 08:46:36;;;;;;;4.65;1.20;;;8.20;72.60;;;;;;4916026;29;20031;-75
2021/04/12 08:49:01;;;;;;;2.97;1.73;;;8.50;71.80;;;;;;4909448;29;20024;-75
2021/04/12 08:51:42;;;;;;;4.68;1.23;;;8.80;69.00;;;;;;4908534;29;20039;-75
2021/04/12 08:54:17;;;;;;;3.40;1.38;;;8.70;69.10;;;;;;4915205;29;20134;-75
2021/04/12 08:57:14;;;;;;;4.70;1.40;;;8.60;70.10;;;;;;4916451;29;20489;-76
2021/04/12 08:59:42;;;;;;;4.13;1.02;;;8.60;70.50;;;;;;4916626;29;20032;-76
2021/04/12 09:02:39;;;;;;;6.80;1.15;;;8.70;69.60;;;;;;4915222;29;20031;-76
2021/04/12 09:05:19;;;;;;;4.38;0.80;;;8.90;68.50;;;;;;4909745;29;20052;-76
2021/04/12 09:08:20;;;;;;;4.22;1.20;;;8.70;65.90;;;;;;4898901;29;20016;-76
2021/04/12 09:11:09;;;;;;;5.85;1.30;;;8.50;66.40;;;;;;4901512;29;20085;-76
2021/04/12 09:13:48;;;;;;;7.40;1.50;;;8.40;66.30;;;;;;4881198;29;20121;-77
2021/04/12 09:16:14;;;;;;;3.70;1.10;;;8.30;66.10;;;;;;4901497;29;20033;-77
2021/04/12 09:19:10;;;;;;;2.65;1.00;;;8.20;65.10;;;;;;4903426;29;20401;-77
2021/04/12 09:21:54;;;;;;;6.57;1.63;;;8.10;67.00;;;;;;4920219;29;20020;-76
2021/04/12 09:24:23;;;;;;;5.97;1.48;;;8.30;67.70;;;;;;4920203;29;20039;-77
2021/04/12 09:27:00;;;;;;;5.15;1.67;;;8.50;67.70;;;;;;4920343;29;20024;-77
2021/04/12 09:29:54;;;;;;;5.82;2.70;;;8.40;67.10;;;;;;4918863;29;20127;-77
2021/04/12 09:32:42;;;;;;;5.53;2.72;;;7.80;69.00;;;;;;4918778;29;20398;-76
2021/04/12 09:35:44;;;;;;;6.47;2.90;;;7.10;71.10;;;;;;4882499;29;20033;-77
2021/04/12 09:38:16;;;;;;;10.38;2.88;;;6.60;72.60;;;;;;4882440;29;20104;-77
2021/04/12 09:41:10;;;;;;;6.38;3.47;;;6.20;74.00;;;;;;4880899;29;20084;-76
2021/04/12 09:44:06;;;;;;;6.75;2.80;;;6.10;75.00;;;;;;4882115;29;20040;-76
2021/04/12 09:46:36;;;;;;;5.63;2.60;;;5.90;75.50;;;;;;4882197;29;20098;-77
2021/04/12 09:49:34;;;;;;;5.22;2.33;;;5.80;75.80;;;;;;4900625;29;20020;-77
2021/04/12 09:52:23;;;;;;;4.93;2.40;;;5.90;76.20;;;;;;4910129;29;20370;-76
2021/04/12 09:55:01;;;;;;;5.97;1.95;;;6.40;76.60;;;;;;4919373;29;20389;-76
2021/04/12 09:57:57;;;;;;;7.10;1.70;;;6.90;74.40;;;;;;4901502;29;20402;-77
2021/04/12 10:00:39;;;;;;;6.32;2.03;;;6.90;72.90;;;;;;4900515;29;20107;-76
2021/04/12 10:03:19;;;;;;;7.40;2.25;;;6.90;73.50;;;;;;4899203;29;20052;-76
2021/04/12 10:06:23;;;;;;;2.75;1.67;;;7.20;73.10;;;;;;4900688;29;20024;-77
2021/04/12 10:09:10;;;;;;;2.58;1.63;;;7.50;70.70;;;;;;4899024;29;20386;-77
2021/04/12 10:11:43;;;;;;;2.65;1.50;;;7.80;69.60;;;;;;4915449;29;20160;-77
2021/04/12 10:14:27;;;;;;;5.70;1.77;;;8.10;69.60;;;;;;4902178;29;20111;-77
2021/04/12 10:17:05;;;;;;;4.30;1.65;;;8.40;68.10;;;;;;4897169;29;20089;-77
2021/04/12 10:19:51;;;;;;;5.07;1.90;;;8.50;67.70;;;;;;4900070;29;20039;-77
2021/04/12 10:22:31;;;;;;;7.45;2.70;;;8.30;68.10;;;;;;4899689;29;20079;-77
2021/04/12 10:25:05;;;;;;;5.93;1.90;;;8.10;68.10;;;;;;4900364;29;20103;-77
2021/04/12 10:27:44;;;;;;;4.38;2.17;;;7.90;68.70;;;;;;4898500;29;20120;-77
2021/04/12 10:30:24;;;;;;;3.78;2.05;;;7.80;69.60;;;;;;4908925;29;20020;-77
2021/04/12 10:32:59;;;;;;;6.30;1.75;;;7.60;70.10;;;;;;4917753;29;20459;-77
2021/04/12 10:35:43;;;;;;;3.88;1.48;;;7.40;70.20;;;;;;4905016;29;20039;-77
2021/04/12 10:38:43;;;;;;;6.57;1.50;;;7.30;69.10;;;;;;4900065;29;20419;-77
2021/04/12 10:41:27;;;;;;;2.42;1.40;;;7.10;68.10;;;;;;4879640;29;20037;-77
2021/04/12 10:44:11;;;;;;;3.72;1.35;;;7.00;69.00;;;;;;4881174;29;20436;-77
2021/04/12 10:46:52;;;;;;;5.85;1.20;;;7.40;69.10;;;;;;4895253;29;20035;-77
2021/04/12 10:49:39;;;;;;;4.60;1.20;;;8.00;67.70;;;;;;4904101;29;20028;-77
2021/04/12 10:52:23;;;;;;;2.67;1.00;;;8.40;65.00;;;;;;4899481;29;20032;-77
2021/04/12 10:55:19;;;;;;;2.72;1.00;;;8.80;62.10;;;;;;4899775;29;20029;-77
2021/04/12 10:58:17;;;;;;;5.13;1.52;;;9.10;61.30;;;;;;4913194;29;20095;-77
2021/04/12 11:01:08;;;;;;;4.70;1.13;;;9.10;60.60;;;;;;4917398;29;20032;-77
2021/04/12 11:03:59;;;;;;;4.60;1.08;;;9.30;60.80;;;;;;4918299;29;20128;-78
2021/04/12 11:07:08;;;;;;;3.17;1.20;;;9.30;60.20;;;;;;4918480;29;20031;-77
2021/04/12 11:09:37;;;;;;;5.65;1.10;;;9.20;57.20;;;;;;4918252;29;20107;-77
2021/04/12 11:12:09;;;;;;;1.67;0.80;;;9.10;57.90;;;;;;4918224;29;20080;-77
2021/04/12 11:14:46;;;;;;;2.85;1.13;;;9.10;57.70;;;;;;4918376;29;20272;-77
2021/04/12 11:17:34;;;;;;;3.80;1.17;;;9.00;59.10;;;;;;4915129;29;20031;-77
2021/04/12 11:20:10;;;;;;;6.45;1.55;;;9.00;59.20;;;;;;4898423;29;20036;-77
2021/04/12 11:22:43;;;;;;;4.53;1.10;;;8.90;62.00;;;;;;4897938;29;20039;-77
2021/04/12 11:25:14;;;;;;;9.63;0.90;;;8.50;62.20;;;;;;4899264;29;20431;-77
2021/04/12 11:28:01;;;;;;;0.85;0.60;;;8.10;60.70;;;;;;4899242;29;20423;-77
2021/04/12 11:30:33;;;;;;;2.55;0.95;;;7.50;63.00;;;;;;4898377;29;20047;-77
2021/04/12 11:33:21;;;;;;;1.90;1.02;;;7.10;66.40;;;;;;4898895;29;20482;-77
2021/04/12 11:35:53;;;;;;;4.35;1.20;;;6.80;67.00;;;;;;4898880;29;20478;-77
2021/04/12 11:38:24;;;;;;;2.58;0.88;;;6.60;68.30;;;;;;4898916;29;20031;-77
2021/04/12 11:41:11;;;;;;;3.22;1.17;;;6.50;70.30;;;;;;4898801;29;20033;-76
2021/04/12 11:43:41;;;;;;;1.55;1.00;;;6.50;72.00;;;;;;4897504;29;20028;-76
2021/04/12 11:46:47;;;;;;;3.13;1.08;;;6.50;73.20;;;;;;4898724;29;20028;-76
2021/04/12 11:49:35;;;;;;;2.05;1.10;;;6.60;71.90;;;;;;4897745;29;20103;-77
2021/04/12 11:52:06;;;;;;;2.03;0.80;;;6.70;72.00;;;;;;4894338;29;20025;-77
2021/04/12 11:54:43;;;;;;;2.05;0.98;;;6.90;72.50;;;;;;4879815;29;20476;-77
2021/04/12 11:57:36;;;;;;;1.52;0.70;;;7.00;72.10;;;;;;4878246;29;20571;-77
2021/04/12 12:00:14;;;;;;;1.75;0.60;;;7.20;72.00;;;;;;4878650;29;20045;-77
2021/04/12 12:02:51;;;;;;;1.38;0.60;;;7.40;71.40;;;;;;4888244;29;20031;-77
2021/04/12 12:05:38;;;;;;;5.10;0.80;;;7.50;71.30;;;;;;4916172;29;20470;-77
2021/04/12 12:08:09;;;;;;;1.42;0.73;;;7.50;70.00;;;;;;4916211;29;20025;-77
2021/04/12 12:10:44;;;;;;;2.25;0.82;;;7.50;70.40;;;;;;4916216;29;20051;-77
2021/04/12 12:13:21;;;;;;;1.35;0.93;;;7.30;70.00;;;;;;4917399;29;20040;-77
2021/04/12 12:15:58;;;;;;;1.85;0.70;;;7.40;70.90;;;;;;4908347;29;20537;-77
2021/04/12 12:18:30;;;;;;;1.13;0.70;;;7.30;70.50;;;;;;4898330;29;20497;-77
2021/04/12 12:21:19;;;;;;;3.15;1.75;;;7.40;69.60;;;;;;4897167;29;20454;-77
2021/04/12 12:24:03;;;;;;;;;;;7.60;70.00;;;;;;4898811;29;20088;-77
2021/04/12 12:26:40;;;;;;;2.92;0.80;;;7.70;69.70;;;;;;4897048;29;19922;-77
2021/04/12 12:29:10;;;;;;;1.40;0.90;;;7.90;69.10;;;;;;4896996;29;20151;-77
2021/04/12 12:31:55;;;;;;;2.08;0.82;;;8.00;69.10;;;;;;4898175;29;20467;-77
2021/04/12 12:34:27;;;;;;;2.38;0.85;;;8.30;68.70;;;;;;4898273;29;20028;-77
2021/04/12 12:37:01;;;;;;;1.40;0.93;;;8.70;67.40;;;;;;4898264;29;20024;-77
2021/04/12 12:39:37;;;;;;;3.20;1.00;;;9.10;66.90;;;;;;4896922;29;20031;-77
2021/04/12 12:42:09;;;;;;;1.92;0.80;;;9.50;65.80;;;;;;4899882;29;20178;-77
2021/04/12 12:44:35;;;;;;;0.80;0.57;;;9.60;64.70;;;;;;4900830;29;20115;-77
2021/04/12 12:47:09;;;;;;;2.67;0.98;;;9.80;64.30;;;;;;4900833;29;20072;-77
2021/04/12 12:49:43;;;;;;;3.15;1.00;;;9.70;62.50;;;;;;4902051;29;20052;-77
2021/04/12 12:52:21;;;;;;;1.98;0.90;;;9.70;62.60;;;;;;4901882;29;20099;-77
2021/04/12 12:54:51;;;;;;;1.60;0.82;;;9.70;63.20;;;;;;4902249;29;20025;-77
2021/04/12 12:57:16;;;;;;;2.45;0.82;;;9.70;61.40;;;;;;4900464;29;20093;-77
2021/04/12 12:59:51;;;;;;;1.23;0.90;;;9.80;63.10;;;;;;4900657;29;20052;-77
2021/04/12 13:02:25;;;;;;;1.67;1.02;;;10.00;62.80;;;;;;4901907;29;20061;-77
2021/04/12 13:05:06;;;;;;;2.92;1.23;;;10.10;62.30;;;;;;4901808;29;20020;-77
2021/04/12 13:07:33;;;;;;;3.60;1.20;;;10.20;60.70;;;;;;4901895;29;20072;-77
2021/04/12 13:10:04;;;;;;;1.60;1.50;;;10.10;59.30;;;;;;4900499;29;20033;-77
2021/04/12 13:12:38;;;;;;;1.35;0.90;;;10.20;60.50;;;;;;4900390;29;20059;-77
2021/04/12 13:15:30;;;;;;;2.40;1.33;;;10.20;59.60;;;;;;4901550;29;20024;-77
2021/04/12 13:18:22;;;;;;;2.47;1.25;;;10.40;59.80;;;;;;4900258;29;20075;-77
2021/04/12 13:20:52;;;;;;;3.67;1.40;;;10.60;59.10;;;;;;4900264;29;20484;-77
2021/04/12 13:23:23;;;;;;;3.55;1.40;;;10.60;59.10;;;;;;4901227;29;20025;-77
2021/04/12 13:25:52;;;;;;;3.45;1.73;;;10.70;58.00;;;;;;4901286;29;20035;-77
2021/04/12 13:28:22;;;;;;;1.33;1.13;;;10.60;57.90;;;;;;4901382;29;20390;-77
2021/04/12 13:31:08;;;;;;;2.38;1.52;;;10.70;58.40;;;;;;4900067;29;20474;-77
2021/04/12 13:34:02;;;;;;;1.58;1.45;;;10.70;59.90;;;;;;4901582;29;20085;-77
2021/04/12 13:36:34;;;;;;;2.92;1.48;;;10.80;57.70;;;;;;4901230;29;20028;-77
2021/04/12 13:39:17;;;;;;;2.35;1.50;;;11.10;58.40;;;;;;4901067;29;20025;-77
2021/04/12 13:41:47;;;;;;;1.58;1.13;;;11.20;56.80;;;;;;4901322;29;20406;-77
2021/04/12 13:44:16;;;;;;;2.10;1.90;;;10.90;56.50;;;;;;4901100;29;20025;-77
2021/04/12 13:47:07;;;;;;;2.90;1.50;;;10.60;56.60;;;;;;4899837;29;20048;-77
2021/04/12 13:49:44;;;;;;;2.58;1.50;;;10.30;57.60;;;;;;4901128;29;20036;-77
2021/04/12 13:52:17;;;;;;;4.45;1.40;;;10.20;58.10;;;;;;4899548;29;20123;-77
2021/04/12 13:54:56;;;;;;;1.90;1.42;;;10.30;58.10;;;;;;4899112;29;20031;-77
2021/04/12 13:57:22;;;;;;;3.80;1.77;;;10.50;59.10;;;;;;4880711;29;20435;-77
2021/04/12 13:59:54;;;;;;;3.58;1.40;;;10.60;54.70;;;;;;4880855;29;20021;-77
2021/04/12 14:02:29;;;;;;;2.25;1.42;;;10.40;56.10;;;;;;4881558;29;20107;-77
2021/04/12 14:05:02;;;;;;;4.78;1.10;;;10.50;56.20;;;;;;4882062;29;20037;-77
2021/04/12 14:07:46;;;;;;;3.80;1.27;;;10.80;55.60;;;;;;4896216;29;20032;-77
2021/04/12 14:10:23;;;;;;;1.85;1.10;;;11.00;54.20;;;;;;4880628;29;20360;-77
2021/04/12 14:12:54;;;;;;;1.85;1.20;;;10.90;53.70;;;;;;4880774;29;20544;-77
2021/04/12 14:16:01;;;;;;;3.17;2.03;;;10.90;53.90;;;;;;4881833;29;20033;-77
2021/04/12 14:18:47;;;;;;;2.17;1.40;;;10.60;53.30;;;;;;4868677;29;20414;-77
2021/04/12 14:21:24;;;;;;;2.13;1.40;;;10.30;54.80;;;;;;4881896;29;20029;-77
2021/04/12 14:23:58;;;;;;;4.60;1.58;;;10.30;55.40;;;;;;4880320;29;20033;-77
2021/04/12 14:26:36;;;;;;;3.58;1.90;;;10.50;55.30;;;;;;4881537;29;20029;-77